Time;durP1;ratioP1;P1;durP2;ratioP2;P2;SDS_P1;SDS_P2;PMS_P1;PMS_P2;Temp;Humidity;BMP_temperature;BMP_pressure;BME280_temperature;BME280_humidity;BME280_pressure;Samples;Min_cycle;Max_cycle;Signal;HPM_P1;HPM_P2
2022/04/08 00:01:20;;;;;;;1.87;1.00;;;8.20;99.90;;;;;;5020935;28;20483;-59
2022/04/08 00:03:47;;;;;;;3.37;1.50;;;8.20;99.90;;;;;;5021023;28;20519;-59
2022/04/08 00:06:14;;;;;;;2.60;0.90;;;8.20;99.90;;;;;;5020909;28;20503;-58
2022/04/08 00:08:41;;;;;;;1.37;0.80;;;8.10;99.90;;;;;;5020796;28;20461;-57
2022/04/08 00:11:09;;;;;;;1.97;1.10;;;8.00;99.90;;;;;;5021126;28;20441;-57
2022/04/08 00:13:36;;;;;;;4.77;1.30;;;8.10;99.90;;;;;;5020093;28;20476;-54
2022/04/08 00:16:03;;;;;;;1.43;1.33;;;8.10;99.90;;;;;;5020067;28;20453;-53
2022/04/08 00:18:30;;;;;;;2.43;1.40;;;8.10;99.90;;;;;;5020396;28;20426;-58
2022/04/08 00:20:56;;;;;;;1.63;0.90;;;8.10;99.90;;;;;;5022698;28;20465;-61
2022/04/08 00:23:23;;;;;;;1.20;1.10;;;8.10;99.90;;;;;;5024354;28;20449;-59
2022/04/08 00:25:50;;;;;;;6.50;1.07;;;8.10;99.90;;;;;;5021716;28;20476;-54
2022/04/08 00:28:18;;;;;;;2.83;1.40;;;8.10;99.90;;;;;;5020851;28;20449;-57
2022/04/08 00:30:45;;;;;;;1.00;0.80;;;8.00;99.90;;;;;;5003977;28;20433;-56
2022/04/08 00:33:11;;;;;;;1.70;1.23;;;8.00;99.90;;;;;;5022981;28;20492;-53
2022/04/08 00:35:40;;;;;;;2.73;1.37;;;8.00;99.90;;;;;;5022148;28;20441;-56
2022/04/08 00:38:07;;;;;;;2.20;1.60;;;7.90;99.90;;;;;;5023292;28;20508;-59
2022/04/08 00:40:34;;;;;;;3.43;1.37;;;7.90;99.90;;;;;;5024041;28;20576;-60
2022/04/08 00:43:11;;;;;;;1.50;1.30;;;7.90;99.90;;;;;;5023234;28;20441;-59
2022/04/08 00:45:39;;;;;;;1.73;1.27;;;7.90;99.90;;;;;;5021102;28;20518;-61
2022/04/08 00:48:07;;;;;;;1.30;1.00;;;7.90;99.90;;;;;;5020530;28;20457;-62
2022/04/08 00:50:35;;;;;;;1.40;0.90;;;7.90;99.90;;;;;;5020975;28;20499;-58
2022/04/08 00:53:05;;;;;;;1.60;1.37;;;7.90;99.90;;;;;;5022154;28;20449;-54
2022/04/08 00:55:32;;;;;;;1.00;0.80;;;7.90;99.90;;;;;;5023621;28;20758;-57
2022/04/08 00:58:02;;;;;;;1.30;1.00;;;7.90;99.90;;;;;;5020795;28;20441;-57
2022/04/08 01:00:35;;;;;;;2.00;1.60;;;8.10;99.90;;;;;;5019920;28;20540;-57
2022/04/08 01:03:06;;;;;;;4.23;1.20;;;8.00;99.90;;;;;;5020126;28;20864;-58
2022/04/08 01:05:33;;;;;;;1.00;0.83;;;8.00;99.90;;;;;;5020351;28;20430;-58
2022/04/08 01:08:02;;;;;;;1.00;0.70;;;8.00;99.90;;;;;;5020067;28;20845;-56
2022/04/08 01:10:29;;;;;;;1.33;0.83;;;8.00;99.90;;;;;;5020074;28;20473;-57
2022/04/08 01:12:56;;;;;;;2.20;1.00;;;8.00;99.90;;;;;;5020101;28;20553;-58
2022/04/08 01:15:25;;;;;;;1.30;0.70;;;8.00;99.90;;;;;;5019684;28;20503;-60
2022/04/08 01:17:52;;;;;;;1.00;0.73;;;;;;;;;;5019851;28;20544;-55
2022/04/08 01:20:21;;;;;;;7.43;1.53;;;;;;;;;;5022244;28;20555;-61
2022/04/08 01:22:48;;;;;;;1.07;0.87;;;;;;;;;;5025003;28;20465;-54
2022/04/08 01:25:16;;;;;;;0.90;0.60;;;;;;;;;;5020745;28;20457;-53
2022/04/08 01:27:45;;;;;;;1.40;1.00;;;;;;;;;;5020540;28;20447;-60
2022/04/08 01:30:13;;;;;;;0.90;0.70;;;;;;;;;;5019918;28;20448;-60
2022/04/08 01:32:40;;;;;;;3.63;1.07;;;;;;;;;;5019720;28;20795;-60
2022/04/08 01:35:07;;;;;;;1.00;0.77;;;;;;;;;;5020137;28;20498;-57
2022/04/08 01:37:34;;;;;;;2.03;0.80;;;;;;;;;;5019106;28;20449;-59
2022/04/08 01:40:04;;;;;;;3.77;0.87;;;;;;;;;;5019483;28;20465;-59
2022/04/08 01:42:33;;;;;;;1.60;0.87;;;;;;;;;;5020042;28;20515;-57
2022/04/08 01:45:00;;;;;;;1.40;1.10;;;;;;;;;;5019814;28;20473;-57
2022/04/08 01:47:27;;;;;;;0.90;0.67;;;;;;;;;;5024173;28;20445;-62
2022/04/08 01:49:54;;;;;;;3.67;1.43;;;;;;;;;;5021547;28;20527;-58
2022/04/08 01:52:21;;;;;;;1.50;0.70;;;;;;;;;;5019600;28;20444;-58
2022/04/08 01:54:48;;;;;;;3.17;1.00;;;;;;;;;;5019908;28;20453;-59
2022/04/08 01:57:17;;;;;;;1.20;0.90;;;;;;;;;;5018898;28;20509;-57
2022/04/08 01:59:47;;;;;;;4.00;1.83;;;;;;;;;;5019166;28;20473;-60
2022/04/08 02:02:14;;;;;;;2.70;1.13;;;;;;;;;;5018462;28;20964;-56
2022/04/08 02:04:41;;;;;;;1.87;1.00;;;;;;;;;;5018809;28;20447;-57
2022/04/08 02:07:08;;;;;;;1.13;0.77;;;;;;;;;;5018531;28;20465;-58
2022/04/08 02:09:35;;;;;;;1.00;0.70;;;;;;;;;;5018460;28;20477;-56
2022/04/08 02:12:02;;;;;;;4.67;1.43;;;;;;;;;;5020248;28;20764;-61
2022/04/08 02:14:29;;;;;;;2.00;0.90;;;;;;;;;;5022990;28;20469;-60
2022/04/08 02:16:58;;;;;;;1.10;0.80;;;;;;;;;;5019662;28;20519;-57
2022/04/08 02:19:25;;;;;;;1.87;1.20;;;;;;;;;;5018389;28;20463;-58
2022/04/08 02:21:52;;;;;;;2.50;1.17;;;;;;;;;;5019024;28;20469;-58
2022/04/08 02:24:19;;;;;;;1.50;1.30;;;;;;;;;;5018952;28;20448;-58
2022/04/08 02:26:46;;;;;;;1.40;0.87;;;;;;;;;;5018767;28;20473;-58
2022/04/08 02:29:13;;;;;;;4.87;1.20;;;;;;;;;;5018684;28;20481;-58
2022/04/08 02:31:40;;;;;;;1.83;1.07;;;;;;;;;;5018796;28;20824;-61
2022/04/08 02:34:09;;;;;;;4.50;1.10;;;;;;;;;;5018401;28;20522;-58
2022/04/08 02:36:37;;;;;;;7.17;1.53;;;;;;;;;;5019730;28;20467;-55
2022/04/08 02:39:04;;;;;;;1.00;0.80;;;;;;;;;;5022100;28;20542;-57
2022/04/08 02:41:31;;;;;;;2.70;1.27;;;;;;;;;;5022091;28;20550;-59
2022/04/08 02:43:58;;;;;;;6.00;1.20;;;;;;;;;;5019155;28;20831;-59
2022/04/08 02:46:25;;;;;;;3.50;1.00;;;;;;;;;;5018501;28;20442;-59
2022/04/08 02:48:52;;;;;;;1.00;0.87;;;;;;;;;;5018231;28;20507;-59
2022/04/08 02:51:20;;;;;;;3.00;1.00;;;;;;;;;;5018628;28;20986;-61
2022/04/08 02:53:47;;;;;;;1.00;0.70;;;;;;;;;;5018253;28;20437;-58
2022/04/08 02:56:14;;;;;;;2.30;1.13;;;;;;;;;;5018208;28;20999;-58
2022/04/08 02:58:42;;;;;;;2.63;0.87;;;;;;;;;;5018323;28;20429;-58
2022/04/08 03:01:10;;;;;;;1.40;1.00;;;;;;;;;;5018297;28;20803;-59
2022/04/08 03:03:37;;;;;;;1.00;0.87;;;;;;;;;;5017564;28;20484;-59
2022/04/08 03:06:04;;;;;;;1.50;1.00;;;;;;;;;;5019043;28;20445;-60
2022/04/08 03:08:32;;;;;;;1.53;0.90;;;;;;;;;;5021763;28;20445;-58
2022/04/08 03:10:59;;;;;;;1.67;1.00;;;;;;;;;;5023230;28;20915;-59
2022/04/08 03:13:26;;;;;;;2.40;1.37;;;;;;;;;;5021823;28;20555;-60
2022/04/08 03:15:54;;;;;;;3.53;1.80;;;;;;;;;;5020327;28;20831;-60
2022/04/08 03:18:21;;;;;;;2.13;1.10;;;;;;;;;;5022489;28;20533;-60
2022/04/08 03:20:48;;;;;;;1.63;1.10;;;;;;;;;;5024985;28;20881;-60
2022/04/08 03:23:15;;;;;;;1.10;0.83;;;;;;;;;;5025312;28;20648;-59
2022/04/08 03:25:43;;;;;;;1.00;0.70;;;;;;;;;;5025350;28;20544;-60
2022/04/08 03:28:11;;;;;;;3.47;1.50;;;;;;;;;;5025381;28;20535;-55
2022/04/08 03:30:38;;;;;;;1.13;0.77;;;;;;;;;;5025670;28;20504;-57
2022/04/08 03:33:05;;;;;;;1.43;0.87;;;;;;;;;;5025610;28;20928;-59
2022/04/08 03:35:32;;;;;;;3.30;1.17;;;;;;;;;;5025851;28;20487;-58
2022/04/08 03:37:59;;;;;;;1.40;1.23;;;;;;;;;;5024849;28;20491;-59
2022/04/08 03:40:27;;;;;;;2.10;1.93;;;;;;;;;;5025460;28;20817;-57
2022/04/08 03:42:55;;;;;;;2.57;1.03;;;;;;;;;;5024547;28;20789;-57
2022/04/08 03:45:22;;;;;;;1.20;0.90;;;;;;;;;;5024566;28;20469;-60
2022/04/08 03:47:49;;;;;;;1.27;0.97;;;;;;;;;;5024635;28;20789;-58
2022/04/08 03:50:20;;;;;;;2.20;1.20;;;7.80;99.90;;;;;;5025092;28;20459;-58
2022/04/08 03:52:47;;;;;;;2.43;1.00;;;7.80;99.90;;;;;;5024721;28;20530;-59
2022/04/08 03:55:18;;;;;;;2.33;0.87;;;7.80;99.90;;;;;;5024835;28;20479;-55
2022/04/08 03:57:46;;;;;;;1.67;1.37;;;7.80;99.90;;;;;;5024326;28;20846;-56
2022/04/08 04:00:15;;;;;;;1.10;0.70;;;7.70;99.90;;;;;;5025424;28;20752;-58
2022/04/08 04:02:42;;;;;;;2.33;1.00;;;7.60;99.90;;;;;;5025229;28;20527;-58
2022/04/08 04:05:11;;;;;;;1.00;0.70;;;7.60;99.90;;;;;;5025011;28;20542;-59
2022/04/08 04:07:38;;;;;;;1.37;1.10;;;7.50;99.90;;;;;;5025502;28;20450;-56
2022/04/08 04:10:05;;;;;;;3.77;0.90;;;7.60;99.90;;;;;;5023855;28;20473;-58
2022/04/08 04:12:33;;;;;;;0.90;0.70;;;7.60;99.90;;;;;;5023684;28;20523;-58
2022/04/08 04:14:59;;;;;;;0.90;0.70;;;7.60;99.90;;;;;;5025440;28;20449;-57
2022/04/08 04:17:28;;;;;;;2.47;1.40;;;7.50;99.90;;;;;;5026921;28;20445;-61
2022/04/08 04:19:56;;;;;;;0.90;0.60;;;7.40;99.90;;;;;;5026716;28;20548;-58
2022/04/08 04:22:23;;;;;;;1.43;0.57;;;7.30;99.90;;;;;;5027494;28;20524;-59
2022/04/08 04:24:49;;;;;;;1.50;1.00;;;7.20;99.90;;;;;;5027537;28;20445;-58
2022/04/08 04:27:16;;;;;;;1.00;0.80;;;7.10;99.90;;;;;;5028650;28;20449;-58
2022/04/08 04:29:45;;;;;;;0.90;0.60;;;6.90;99.90;;;;;;5027830;28;20437;-59
2022/04/08 04:32:12;;;;;;;0.90;0.60;;;6.90;99.90;;;;;;5028060;28;20445;-59
2022/04/08 04:34:40;;;;;;;1.10;0.80;;;6.90;99.90;;;;;;5026800;28;20511;-56
2022/04/08 04:37:08;;;;;;;1.00;0.87;;;6.90;99.90;;;;;;5026383;28;20453;-60
2022/04/08 04:39:35;;;;;;;1.47;0.70;;;6.90;99.90;;;;;;5026595;28;20656;-58
2022/04/08 04:42:02;;;;;;;8.20;0.80;;;6.80;99.90;;;;;;5027510;28;20939;-56
2022/04/08 04:44:29;;;;;;;3.63;0.90;;;6.80;99.90;;;;;;5026466;28;20453;-58
2022/04/08 04:46:56;;;;;;;1.00;0.90;;;6.80;99.90;;;;;;5025670;28;20476;-60
2022/04/08 04:49:23;;;;;;;1.10;0.80;;;6.80;99.90;;;;;;5025854;28;20445;-59
2022/04/08 04:51:53;;;;;;;4.10;0.97;;;6.80;99.90;;;;;;5025068;28;20445;-59
2022/04/08 04:54:20;;;;;;;3.50;1.20;;;6.80;99.90;;;;;;5024770;28;20441;-59
2022/04/08 04:56:46;;;;;;;2.50;0.90;;;6.80;99.90;;;;;;5024663;28;20461;-59
2022/04/08 04:59:13;;;;;;;1.00;0.77;;;6.80;99.90;;;;;;5024460;28;20517;-58
2022/04/08 05:01:40;;;;;;;4.80;0.90;;;6.90;99.90;;;;;;5024913;28;20534;-57
2022/04/08 05:04:06;;;;;;;1.40;0.93;;;6.80;99.90;;;;;;5034086;28;20438;-56
2022/04/08 05:06:34;;;;;;;2.17;1.10;;;6.70;99.90;;;;;;5034028;28;20911;-54
2022/04/08 05:09:04;;;;;;;1.43;1.30;;;6.70;99.90;;;;;;5034245;28;20445;-56
2022/04/08 05:11:30;;;;;;;1.90;1.10;;;6.70;99.90;;;;;;5033113;28;20501;-59
2022/04/08 05:13:57;;;;;;;3.50;1.20;;;6.70;99.90;;;;;;5034293;28;20465;-59
2022/04/08 05:16:24;;;;;;;2.33;0.93;;;6.80;99.90;;;;;;5032985;28;20445;-57
2022/04/08 05:18:51;;;;;;;2.23;1.43;;;6.80;99.90;;;;;;5032289;28;20464;-58
2022/04/08 05:21:17;;;;;;;1.93;0.87;;;6.80;99.90;;;;;;5033921;28;20533;-53
2022/04/08 05:23:44;;;;;;;2.90;1.20;;;6.80;99.90;;;;;;5034151;28;20480;-56
2022/04/08 05:26:12;;;;;;;1.10;0.77;;;6.80;99.90;;;;;;5033427;28;20465;-58
2022/04/08 05:28:41;;;;;;;1.00;0.80;;;6.80;99.90;;;;;;5032968;28;20451;-58
2022/04/08 05:31:07;;;;;;;1.23;0.80;;;6.80;99.90;;;;;;5033690;28;20456;-57
2022/04/08 05:33:34;;;;;;;2.40;1.00;;;6.80;99.90;;;;;;5033625;28;20783;-57
2022/04/08 05:36:01;;;;;;;2.30;1.20;;;6.80;99.90;;;;;;5033891;28;20503;-57
2022/04/08 05:38:29;;;;;;;1.20;0.80;;;6.70;99.90;;;;;;5031561;28;20422;-57
2022/04/08 05:40:56;;;;;;;1.53;1.00;;;6.70;99.90;;;;;;5033979;28;20547;-55
2022/04/08 05:43:26;;;;;;;6.20;1.10;;;6.70;99.90;;;;;;5032222;28;20526;-46
2022/04/08 05:45:53;;;;;;;4.33;1.17;;;6.80;99.90;;;;;;5033651;28;20469;-46
2022/04/08 05:48:20;;;;;;;1.17;0.80;;;6.70;99.90;;;;;;5033633;28;20457;-47
2022/04/08 05:50:47;;;;;;;1.60;0.70;;;6.80;99.90;;;;;;5033642;28;20954;-49
2022/04/08 05:53:13;;;;;;;1.30;0.90;;;6.80;99.90;;;;;;5034225;28;20499;-45
2022/04/08 05:55:41;;;;;;;5.63;0.87;;;6.70;99.90;;;;;;5033110;28;20475;-60
2022/04/08 05:58:08;;;;;;;11.10;1.30;;;6.80;99.90;;;;;;5033855;28;20465;-59
2022/04/08 06:00:37;;;;;;;4.17;1.30;;;6.70;99.90;;;;;;5033373;28;20453;-56
2022/04/08 06:03:05;;;;;;;2.63;1.10;;;6.70;99.90;;;;;;5033900;28;20485;-58
2022/04/08 06:05:32;;;;;;;2.00;1.03;;;6.70;99.90;;;;;;5034584;28;20441;-58
2022/04/08 06:07:59;;;;;;;1.57;0.90;;;6.70;99.90;;;;;;5033994;28;20480;-55
2022/04/08 06:10:26;;;;;;;1.00;0.80;;;6.70;99.90;;;;;;5034303;28;20465;-56
2022/04/08 06:12:54;;;;;;;1.23;0.90;;;6.70;99.90;;;;;;5033468;28;20449;-53
2022/04/08 06:15:22;;;;;;;1.93;1.20;;;6.70;99.90;;;;;;5033419;28;20457;-59
2022/04/08 06:17:50;;;;;;;3.20;1.20;;;6.80;99.90;;;;;;5034184;28;20440;-59
2022/04/08 06:20:18;;;;;;;1.40;1.03;;;6.80;99.90;;;;;;5029693;28;20469;-58
2022/04/08 06:22:48;;;;;;;6.50;0.90;;;6.80;99.90;;;;;;5033067;28;20946;-58
2022/04/08 06:25:17;;;;;;;1.60;0.90;;;6.80;99.90;;;;;;5023778;28;20484;-56
2022/04/08 06:27:45;;;;;;;1.80;1.30;;;6.80;99.90;;;;;;5032911;28;20479;-53
2022/04/08 06:30:14;;;;;;;3.50;1.10;;;6.80;99.90;;;;;;5032697;28;20496;-58
2022/04/08 06:32:42;;;;;;;0.90;0.77;;;6.80;99.90;;;;;;5032633;28;20488;-56
2022/04/08 06:35:12;;;;;;;1.30;1.10;;;6.90;99.90;;;;;;5034251;28;20472;-52
2022/04/08 06:37:39;;;;;;;1.97;1.43;;;6.90;99.90;;;;;;5033676;28;20525;-53
2022/04/08 06:40:09;;;;;;;1.30;0.90;;;6.90;99.90;;;;;;5032788;28;20433;-53
2022/04/08 06:42:36;;;;;;;1.27;1.00;;;6.90;99.90;;;;;;5033220;28;20477;-53
2022/04/08 06:45:04;;;;;;;1.43;1.20;;;7.00;99.90;;;;;;5032810;28;20445;-58
2022/04/08 06:47:30;;;;;;;0.90;0.63;;;7.10;99.90;;;;;;5032909;28;20469;-51
2022/04/08 06:49:57;;;;;;;1.70;0.70;;;7.10;99.90;;;;;;5032523;28;20457;-59
2022/04/08 06:52:27;;;;;;;2.60;1.10;;;7.10;99.90;;;;;;5033423;28;20477;-55
2022/04/08 06:54:53;;;;;;;2.17;0.93;;;7.00;99.90;;;;;;5035996;28;20441;-61
2022/04/08 06:57:20;;;;;;;2.63;0.90;;;6.80;99.90;;;;;;5036487;28;20491;-58
2022/04/08 06:59:47;;;;;;;0.90;0.67;;;6.50;99.90;;;;;;5037533;28;20429;-56
2022/04/08 07:02:14;;;;;;;3.80;1.00;;;6.20;99.90;;;;;;5037464;28;20476;-56
2022/04/08 07:04:43;;;;;;;1.47;1.30;;;5.90;99.90;;;;;;5037103;28;20537;-57
2022/04/08 07:07:09;;;;;;;3.53;0.87;;;5.70;99.90;;;;;;5037444;28;20481;-55
2022/04/08 07:09:37;;;;;;;1.30;0.80;;;5.60;99.90;;;;;;5037671;28;20465;-58
2022/04/08 07:12:04;;;;;;;1.80;1.03;;;5.50;99.90;;;;;;5038296;28;20441;-57
2022/04/08 07:14:31;;;;;;;1.77;0.90;;;5.30;99.90;;;;;;5037960;28;20932;-57
2022/04/08 07:16:58;;;;;;;4.73;0.93;;;5.20;99.90;;;;;;5037825;28;20455;-54
2022/04/08 07:19:25;;;;;;;3.90;0.80;;;4.90;99.90;;;;;;5038353;28;20441;-56
2022/04/08 07:21:51;;;;;;;10.63;2.50;;;4.60;99.90;;;;;;5038298;28;20477;-54
2022/04/08 07:24:18;;;;;;;2.90;1.10;;;4.50;99.90;;;;;;5037703;28;20768;-59
2022/04/08 07:26:46;;;;;;;4.30;1.00;;;4.50;99.90;;;;;;5037859;28;20517;-59
2022/04/08 07:29:13;;;;;;;1.23;0.70;;;4.50;99.90;;;;;;5037908;28;20932;-56
2022/04/08 07:31:40;;;;;;;3.80;0.80;;;4.60;99.90;;;;;;5038065;28;20464;-55
2022/04/08 07:34:07;;;;;;;1.77;1.60;;;4.60;99.90;;;;;;5038029;28;20471;-58
2022/04/08 07:36:33;;;;;;;1.10;0.60;;;4.70;99.90;;;;;;5037395;28;20469;-59
2022/04/08 07:39:00;;;;;;;1.70;1.30;;;4.80;99.90;;;;;;5037645;28;20418;-58
2022/04/08 07:41:27;;;;;;;4.13;1.20;;;5.00;99.90;;;;;;5037585;28;20492;-57
2022/04/08 07:43:55;;;;;;;4.87;1.03;;;5.20;99.90;;;;;;5036330;28;20437;-57
2022/04/08 07:46:22;;;;;;;2.60;0.80;;;5.30;99.90;;;;;;5036466;28;20455;-58
2022/04/08 07:48:50;;;;;;;5.97;1.07;;;5.50;99.90;;;;;;5036731;28;20479;-55
2022/04/08 07:51:17;;;;;;;1.93;1.10;;;5.70;99.90;;;;;;5036694;28;20461;-56
2022/04/08 07:53:54;;;;;;;2.47;1.50;;;5.90;99.90;;;;;;5036665;28;20488;-58
2022/04/08 07:56:21;;;;;;;6.27;2.40;;;6.00;99.90;;;;;;5035634;28;20465;-57
2022/04/08 07:58:48;;;;;;;8.63;1.97;;;6.20;99.90;;;;;;5034729;28;20464;-57
2022/04/08 08:01:17;;;;;;;7.73;1.97;;;6.90;99.90;;;;;;5034224;28;20536;-58
2022/04/08 08:03:46;;;;;;;2.30;1.20;;;7.60;99.90;;;;;;5033893;28;20465;-58
2022/04/08 08:06:15;;;;;;;1.43;1.30;;;7.90;99.90;;;;;;5032313;28;20453;-59
2022/04/08 08:08:44;;;;;;;2.33;1.20;;;7.80;99.90;;;;;;5033761;28;20488;-58
2022/04/08 08:11:13;;;;;;;2.10;1.83;;;8.00;99.90;;;;;;5029638;28;20920;-60
2022/04/08 08:13:40;;;;;;;2.03;1.00;;;9.10;99.90;;;;;;5021097;28;21078;-60
2022/04/08 08:16:07;;;;;;;4.20;1.13;;;10.60;99.90;;;;;;5019397;28;20449;-57
2022/04/08 08:18:35;;;;;;;2.07;1.00;;;11.70;99.90;;;;;;5019472;28;20453;-55
2022/04/08 08:21:02;;;;;;;3.53;1.47;;;12.80;99.90;;;;;;5020128;28;20446;-57
2022/04/08 08:23:29;;;;;;;4.93;1.20;;;13.00;99.90;;;;;;5020627;28;20489;-56
2022/04/08 08:26:05;;;;;;;3.03;1.87;;;13.60;99.90;;;;;;5020645;28;20456;-59
2022/04/08 08:28:32;;;;;;;4.87;1.47;;;14.00;99.90;;;;;;5020727;28;20433;-55
2022/04/08 08:30:58;;;;;;;4.17;1.60;;;14.00;99.90;;;;;;5020721;28;20441;-55
2022/04/08 08:33:25;;;;;;;2.43;0.93;;;13.60;99.90;;;;;;5020269;28;20821;-55
2022/04/08 08:35:53;;;;;;;2.90;1.47;;;13.40;99.90;;;;;;5019870;28;20488;-55
2022/04/08 08:38:20;;;;;;;3.23;1.37;;;13.50;99.90;;;;;;5020798;28;20465;-58
2022/04/08 08:40:48;;;;;;;4.97;1.27;;;13.20;99.40;;;;;;5020799;28;20469;-57
2022/04/08 08:43:18;;;;;;;3.90;1.10;;;13.00;99.70;;;;;;5020755;28;20473;-55
2022/04/08 08:45:45;;;;;;;2.53;1.00;;;12.80;99.90;;;;;;5020558;28;20449;-59
2022/04/08 08:48:14;;;;;;;4.07;1.10;;;12.30;99.90;;;;;;5021148;28;20508;-53
2022/04/08 08:50:46;;;;;;;9.83;1.60;;;12.00;99.90;;;;;;5021928;28;20895;-58
2022/04/08 08:53:18;;;;;;;1.83;1.00;;;11.80;99.90;;;;;;5021572;28;20473;-55
2022/04/08 08:55:45;;;;;;;6.73;1.33;;;11.20;99.90;;;;;;5022081;28;20524;-55
2022/04/08 08:58:12;;;;;;;1.60;1.10;;;10.50;99.90;;;;;;5022700;28;20541;-58
2022/04/08 09:00:46;;;;;;;3.13;1.07;;;10.00;99.90;;;;;;5022277;28;21179;-54
2022/04/08 09:03:13;;;;;;;6.93;1.30;;;10.10;99.90;;;;;;5021945;28;20561;-60
2022/04/08 09:05:42;;;;;;;12.43;1.67;;;11.20;99.90;;;;;;5020902;28;20800;-54
2022/04/08 09:08:12;;;;;;;2.73;1.50;;;11.80;99.90;;;;;;5023886;28;20444;-53
2022/04/08 09:10:44;;;;;;;6.87;2.97;;;12.50;99.90;;;;;;5023661;28;20481;-57
2022/04/08 09:13:11;;;;;;;2.40;1.23;;;12.30;99.90;;;;;;5025655;28;20449;-57
2022/04/08 09:15:40;;;;;;;12.00;2.30;;;11.90;99.90;;;;;;5024800;28;20441;-54
2022/04/08 09:18:11;;;;;;;2.47;1.20;;;11.50;99.90;;;;;;5025749;28;20513;-56
2022/04/08 09:20:40;;;;;;;2.73;1.10;;;11.10;99.90;;;;;;5027445;28;20440;-61
2022/04/08 09:23:08;;;;;;;2.70;0.90;;;11.00;99.90;;;;;;5027387;28;20507;-58
2022/04/08 09:25:35;;;;;;;2.23;1.20;;;10.90;99.90;;;;;;5027226;28;20499;-59
2022/04/08 09:28:08;;;;;;;2.17;1.10;;;10.30;99.90;;;;;;5028194;28;20472;-58
2022/04/08 09:30:35;;;;;;;3.00;1.47;;;10.60;99.90;;;;;;5027943;28;20456;-58
2022/04/08 09:33:12;;;;;;;3.00;1.13;;;10.60;99.90;;;;;;5027169;28;20459;-56
2022/04/08 09:35:42;;;;;;;4.23;1.07;;;10.80;99.90;;;;;;5025417;28;20445;-59
2022/04/08 09:38:09;;;;;;;2.23;1.40;;;10.60;99.90;;;;;;5028185;28;20433;-55
2022/04/08 09:40:37;;;;;;;4.03;0.80;;;10.30;99.90;;;;;;5027701;28;20448;-59
2022/04/08 09:43:04;;;;;;;1.40;1.20;;;10.70;99.90;;;;;;5026698;28;20480;-57
2022/04/08 09:45:33;;;;;;;3.53;1.07;;;11.00;99.90;;;;;;5025181;28;20472;-55
2022/04/08 09:47:59;;;;;;;2.27;0.77;;;11.00;99.90;;;;;;5027110;28;20967;-58
2022/04/08 09:50:27;;;;;;;4.37;1.10;;;10.40;99.90;;;;;;5029077;28;20449;-58
2022/04/08 09:52:55;;;;;;;3.23;2.33;;;9.90;99.90;;;;;;5029568;28;20445;-56
2022/04/08 09:55:23;;;;;;;2.50;1.30;;;9.60;99.90;;;;;;5029991;28;20528;-58
2022/04/08 09:57:54;;;;;;;3.40;1.10;;;9.30;99.90;;;;;;5029401;28;20468;-54
2022/04/08 10:00:21;;;;;;;1.30;1.00;;;9.20;99.90;;;;;;5030302;28;20818;-55
2022/04/08 10:02:52;;;;;;;2.23;0.90;;;9.10;99.90;;;;;;5029092;28;20492;-58
2022/04/08 10:05:23;;;;;;;2.87;0.80;;;9.50;99.90;;;;;;5029628;28;20437;-56
2022/04/08 10:07:53;;;;;;;2.70;1.03;;;10.10;99.90;;;;;;5013826;28;20893;-58
2022/04/08 10:10:24;;;;;;;2.50;1.40;;;10.40;99.90;;;;;;5008263;28;20861;-58
2022/04/08 10:13:15;;;;;;;3.67;1.23;;;10.40;99.90;;;;;;5008584;28;20470;-55
2022/04/08 10:15:44;;;;;;;2.17;1.13;;;11.10;99.90;;;;;;5005178;28;20505;-55
2022/04/08 10:18:12;;;;;;;1.83;0.77;;;12.00;99.90;;;;;;5003557;28;20453;-58
2022/04/08 10:20:40;;;;;;;6.57;2.00;;;12.40;97.60;;;;;;5005012;28;20461;-56
2022/04/08 10:23:08;;;;;;;4.30;1.37;;;11.80;97.50;;;;;;5024957;28;20485;-59
2022/04/08 10:25:40;;;;;;;1.97;1.00;;;11.20;98.20;;;;;;5025167;28;20511;-58
2022/04/08 10:28:11;;;;;;;1.10;0.80;;;10.90;99.90;;;;;;5024775;28;20524;-55
2022/04/08 10:30:45;;;;;;;4.93;1.70;;;10.80;99.90;;;;;;5025255;28;20437;-58
2022/04/08 10:33:14;;;;;;;5.07;2.30;;;11.00;99.90;;;;;;5024856;28;20452;-59
2022/04/08 10:35:52;;;;;;;3.87;1.10;;;11.20;98.00;;;;;;5024842;28;20445;-55
2022/04/08 10:38:19;;;;;;;3.57;0.93;;;11.50;98.10;;;;;;5024510;28;20452;-56
2022/04/08 10:40:56;;;;;;;3.60;1.40;;;11.70;95.20;;;;;;5025362;28;20792;-58
2022/04/08 10:43:23;;;;;;;2.50;1.17;;;11.90;94.20;;;;;;5025067;28;20515;-55
2022/04/08 10:45:55;;;;;;;3.17;1.23;;;11.90;93.70;;;;;;5023702;28;20488;-54
2022/04/08 10:48:30;;;;;;;2.40;1.10;;;12.20;91.60;;;;;;5024210;28;20500;-55
2022/04/08 10:51:04;;;;;;;1.67;1.23;;;12.20;91.70;;;;;;5024789;28;20432;-58
2022/04/08 10:53:34;;;;;;;1.90;1.57;;;11.90;91.00;;;;;;5024915;28;20461;-60
2022/04/08 10:56:10;;;;;;;4.43;1.27;;;11.40;91.70;;;;;;5025867;28;20592;-56
2022/04/08 10:58:46;;;;;;;1.97;1.10;;;11.50;91.30;;;;;;5025758;28;20576;-58
2022/04/08 11:01:17;;;;;;;6.40;1.30;;;11.30;92.20;;;;;;5025730;28;20441;-59
2022/04/08 11:03:54;;;;;;;2.70;1.80;;;10.90;92.80;;;;;;5027357;28;20472;-53
2022/04/08 11:06:22;;;;;;;4.73;1.27;;;10.40;93.50;;;;;;5028602;28;20461;-52
2022/04/08 11:08:49;;;;;;;4.30;1.10;;;10.00;97.00;;;;;;5029769;28;20936;-57
2022/04/08 11:11:15;;;;;;;2.30;0.93;;;9.60;99.90;;;;;;5029582;28;20445;-58
2022/04/08 11:13:42;;;;;;;2.40;1.37;;;9.40;99.90;;;;;;5029494;28;20457;-56
2022/04/08 11:16:09;;;;;;;2.17;1.20;;;9.70;99.90;;;;;;5028539;28;20452;-56
2022/04/08 11:18:36;;;;;;;4.60;0.90;;;9.90;99.90;;;;;;5028644;28;20488;-58
2022/04/08 11:21:04;;;;;;;3.53;1.43;;;9.90;99.90;;;;;;5028312;28;20452;-55
2022/04/08 11:23:33;;;;;;;1.60;1.10;;;10.00;99.90;;;;;;5027958;28;20509;-59
2022/04/08 11:26:00;;;;;;;6.43;1.40;;;10.00;99.90;;;;;;5026476;28;20441;-54
2022/04/08 11:28:27;;;;;;;3.07;1.30;;;10.30;99.90;;;;;;5025922;28;20440;-58
2022/04/08 11:30:58;;;;;;;1.40;1.10;;;10.70;99.90;;;;;;5025309;28;20484;-58
2022/04/08 11:33:26;;;;;;;1.40;1.30;;;11.20;99.90;;;;;;5025277;28;20480;-55
2022/04/08 11:35:58;;;;;;;3.00;1.40;;;11.50;99.90;;;;;;5025696;28;20458;-57
2022/04/08 11:38:28;;;;;;;2.70;1.10;;;11.40;99.90;;;;;;5025648;28;20449;-60
2022/04/08 11:40:55;;;;;;;1.90;1.03;;;11.10;99.90;;;;;;5028052;28;20429;-59
2022/04/08 11:43:23;;;;;;;2.33;1.57;;;11.00;99.90;;;;;;5029731;28;20516;-57
2022/04/08 11:45:51;;;;;;;10.70;1.20;;;10.90;99.90;;;;;;5030287;28;20445;-54
2022/04/08 11:48:20;;;;;;;3.00;1.30;;;10.90;99.90;;;;;;5029071;28;20469;-60
2022/04/08 11:50:47;;;;;;;1.60;1.43;;;11.10;99.90;;;;;;5028592;28;20492;-59
2022/04/08 11:53:16;;;;;;;2.10;1.43;;;11.00;99.90;;;;;;5029405;28;20449;-58
2022/04/08 11:55:54;;;;;;;4.90;1.67;;;10.90;99.90;;;;;;5029025;28;20503;-57
2022/04/08 11:58:21;;;;;;;1.40;1.00;;;10.70;99.90;;;;;;5029538;28;20433;-56
2022/04/08 12:00:49;;;;;;;1.57;1.00;;;10.30;99.30;;;;;;5030932;28;20465;-58
2022/04/08 12:03:21;;;;;;;3.90;3.47;;;10.00;99.90;;;;;;5025886;28;20487;-56
2022/04/08 12:05:48;;;;;;;2.83;1.20;;;9.60;99.90;;;;;;4997125;28;20839;-56
2022/04/08 12:08:15;;;;;;;3.13;1.07;;;9.40;99.90;;;;;;4996694;28;20932;-58
2022/04/08 12:10:42;;;;;;;2.13;1.40;;;9.20;99.90;;;;;;4997304;28;20464;-59
2022/04/08 12:13:18;;;;;;;4.07;1.17;;;9.20;99.90;;;;;;4997361;28;20453;-59
2022/04/08 12:15:46;;;;;;;4.23;1.20;;;9.20;99.90;;;;;;4997582;28;20468;-56
2022/04/08 12:18:13;;;;;;;3.17;2.00;;;9.30;99.90;;;;;;4997261;28;20859;-60
2022/04/08 12:20:41;;;;;;;2.17;1.50;;;9.40;99.90;;;;;;4997483;28;20450;-55
2022/04/08 12:23:10;;;;;;;7.37;1.63;;;9.60;99.90;;;;;;4997236;28;20551;-61
2022/04/08 12:25:37;;;;;;;4.70;3.63;;;9.70;99.90;;;;;;4997440;28;20477;-60
2022/04/08 12:28:12;;;;;;;6.00;1.33;;;9.90;99.90;;;;;;4997527;28;20454;-61
2022/04/08 12:30:41;;;;;;;2.00;1.50;;;9.90;99.90;;;;;;4997300;28;20469;-60
2022/04/08 12:33:07;;;;;;;3.50;1.33;;;9.90;99.90;;;;;;4997044;28;20528;-60
2022/04/08 12:35:34;;;;;;;5.10;1.73;;;9.60;99.90;;;;;;4997137;28;20552;-58
2022/04/08 12:38:04;;;;;;;4.97;2.27;;;9.50;99.90;;;;;;4997292;28;20450;-59
2022/04/08 12:40:31;;;;;;;7.00;1.40;;;9.60;99.90;;;;;;4997057;28;20461;-58
2022/04/08 12:42:58;;;;;;;2.87;1.63;;;9.60;99.90;;;;;;4996944;28;20481;-54
2022/04/08 12:45:25;;;;;;;1.40;0.87;;;9.70;99.90;;;;;;4996936;28;20465;-62
2022/04/08 12:47:53;;;;;;;5.27;1.93;;;9.80;99.90;;;;;;4996606;28;20492;-59
2022/04/08 12:50:20;;;;;;;3.37;1.83;;;9.90;99.90;;;;;;4996770;28;20512;-60
2022/04/08 12:52:46;;;;;;;1.80;1.60;;;9.90;99.90;;;;;;4996391;28;20788;-60
2022/04/08 12:55:13;;;;;;;4.90;1.77;;;10.10;99.90;;;;;;4996722;28;20816;-60
2022/04/08 12:57:41;;;;;;;3.40;1.50;;;10.10;99.90;;;;;;4996789;28;20468;-60
2022/04/08 13:00:11;;;;;;;5.43;1.23;;;10.00;99.90;;;;;;4996789;28;20522;-57
2022/04/08 13:02:39;;;;;;;1.97;1.30;;;9.90;99.90;;;;;;4996963;28;20497;-61
2022/04/08 13:05:07;;;;;;;1.70;1.10;;;9.80;99.90;;;;;;4996712;28;20493;-56
2022/04/08 13:07:35;;;;;;;3.10;1.63;;;9.70;99.90;;;;;;4996594;28;20449;-61
2022/04/08 13:10:01;;;;;;;2.50;0.90;;;9.70;99.90;;;;;;4996512;28;20449;-60
2022/04/08 13:12:28;;;;;;;5.80;1.40;;;9.80;99.90;;;;;;4996384;28;20473;-59
2022/04/08 13:14:55;;;;;;;1.83;1.20;;;9.90;99.90;;;;;;4996211;28;20454;-58
2022/04/08 13:17:22;;;;;;;2.70;1.23;;;10.00;99.90;;;;;;4996411;28;20458;-55